sensor_id;sensor_type;location;lat;lon;timestamp;pressure;altitude;pressure_sealevel;temperature;humidity
55916;BME280;41826;53.246;-6.670;2023-02-01T00:00:09;102076.84;;;5.99;100.00
55916;BME280;41826;53.246;-6.670;2023-02-01T00:02:34;102059.59;;;5.96;100.00
55916;BME280;41826;53.246;-6.670;2023-02-01T00:05:05;102070.63;;;6.01;100.00
55916;BME280;41826;53.246;-6.670;2023-02-01T00:07:30;102067.56;;;5.93;100.00
55916;BME280;41826;53.246;-6.670;2023-02-01T00:09:56;102068.03;;;5.84;100.00
55916;BME280;41826;53.246;-6.670;2023-02-01T00:12:21;102073.31;;;6.00;100.00
55916;BME280;41826;53.246;-6.670;2023-02-01T00:14:46;102067.03;;;5.86;100.00
55916;BME280;41826;53.246;-6.670;2023-02-01T00:17:13;102065.59;;;5.81;100.00
55916;BME280;41826;53.246;-6.670;2023-02-01T00:19:39;102062.31;;;5.77;100.00
55916;BME280;41826;53.246;-6.670;2023-02-01T00:22:04;102053.38;;;5.81;100.00
55916;BME280;41826;53.246;-6.670;2023-02-01T00:24:29;102056.75;;;5.83;100.00
55916;BME280;41826;53.246;-6.670;2023-02-01T00:26:55;102065.34;;;5.85;100.00
55916;BME280;41826;53.246;-6.670;2023-02-01T00:29:21;102061.59;;;5.74;100.00
55916;BME280;41826;53.246;-6.670;2023-02-01T00:31:49;102065.75;;;5.78;100.00
55916;BME280;41826;53.246;-6.670;2023-02-01T00:34:15;102057.84;;;5.79;100.00
55916;BME280;41826;53.246;-6.670;2023-02-01T00:36:42;102066.53;;;5.80;100.00
55916;BME280;41826;53.246;-6.670;2023-02-01T00:39:09;102063.75;;;5.83;100.00
55916;BME280;41826;53.246;-6.670;2023-02-01T00:41:34;102052.13;;;5.73;100.00
55916;BME280;41826;53.246;-6.670;2023-02-01T00:44:00;102058.38;;;5.69;100.00
55916;BME280;41826;53.246;-6.670;2023-02-01T00:46:26;102060.94;;;5.70;100.00
55916;BME280;41826;53.246;-6.670;2023-02-01T00:48:52;102051.00;;;5.77;100.00
55916;BME280;41826;53.246;-6.670;2023-02-01T00:51:20;102051.50;;;5.68;100.00
55916;BME280;41826;53.246;-6.670;2023-02-01T00:53:46;102045.69;;;5.62;100.00
55916;BME280;41826;53.246;-6.670;2023-02-01T00:56:12;102046.81;;;5.74;100.00
55916;BME280;41826;53.246;-6.670;2023-02-01T00:58:37;102036.38;;;5.74;100.00
55916;BME280;41826;53.246;-6.670;2023-02-01T01:01:10;102020.69;;;5.76;100.00
55916;BME280;41826;53.246;-6.670;2023-02-01T01:03:39;102037.38;;;5.72;100.00
55916;BME280;41826;53.246;-6.670;2023-02-01T01:06:08;102028.66;;;5.73;100.00
55916;BME280;41826;53.246;-6.670;2023-02-01T01:08:34;102030.50;;;5.71;100.00
55916;BME280;41826;53.246;-6.670;2023-02-01T01:11:07;102015.63;;;5.73;100.00
55916;BME280;41826;53.246;-6.670;2023-02-01T01:13:33;102019.06;;;5.73;100.00
55916;BME280;41826;53.246;-6.670;2023-02-01T01:16:04;102020.63;;;5.77;100.00
55916;BME280;41826;53.246;-6.670;2023-02-01T01:18:30;101999.06;;;5.74;100.00
55916;BME280;41826;53.246;-6.670;2023-02-01T01:20:56;102010.88;;;5.81;100.00
55916;BME280;41826;53.246;-6.670;2023-02-01T01:23:22;102007.50;;;5.79;100.00
55916;BME280;41826;53.246;-6.670;2023-02-01T01:25:47;102008.41;;;5.78;100.00
55916;BME280;41826;53.246;-6.670;2023-02-01T01:28:12;102013.88;;;5.73;100.00
55916;BME280;41826;53.246;-6.670;2023-02-01T01:30:38;102015.16;;;5.64;100.00
55916;BME280;41826;53.246;-6.670;2023-02-01T01:33:03;102010.03;;;5.80;100.00
55916;BME280;41826;53.246;-6.670;2023-02-01T01:35:30;102015.47;;;5.76;100.00
55916;BME280;41826;53.246;-6.670;2023-02-01T01:37:56;102000.06;;;5.71;100.00
55916;BME280;41826;53.246;-6.670;2023-02-01T01:40:24;102005.13;;;5.74;100.00
55916;BME280;41826;53.246;-6.670;2023-02-01T01:42:49;101998.91;;;5.77;100.00
55916;BME280;41826;53.246;-6.670;2023-02-01T01:45:25;101994.63;;;5.76;100.00
55916;BME280;41826;53.246;-6.670;2023-02-01T01:48:14;102003.38;;;5.75;100.00
55916;BME280;41826;53.246;-6.670;2023-02-01T01:50:42;102006.44;;;5.65;100.00
55916;BME280;41826;53.246;-6.670;2023-02-01T01:53:12;101999.53;;;5.64;100.00
55916;BME280;41826;53.246;-6.670;2023-02-01T01:55:42;102002.75;;;5.70;100.00
55916;BME280;41826;53.246;-6.670;2023-02-01T01:58:13;102001.25;;;5.65;100.00
55916;BME280;41826;53.246;-6.670;2023-02-01T02:00:47;101987.81;;;5.73;100.00
55916;BME280;41826;53.246;-6.670;2023-02-01T02:03:20;101999.47;;;5.66;100.00
55916;BME280;41826;53.246;-6.670;2023-02-01T02:05:49;102006.63;;;5.62;100.00
55916;BME280;41826;53.246;-6.670;2023-02-01T02:08:17;102012.66;;;5.63;100.00
55916;BME280;41826;53.246;-6.670;2023-02-01T02:10:45;102015.66;;;5.55;100.00
55916;BME280;41826;53.246;-6.670;2023-02-01T02:13:41;102004.44;;;5.71;100.00
55916;BME280;41826;53.246;-6.670;2023-02-01T02:19:00;102016.25;;;5.60;100.00
55916;BME280;41826;53.246;-6.670;2023-02-01T02:21:56;102015.16;;;5.64;100.00
55916;BME280;41826;53.246;-6.670;2023-02-01T02:25:01;102009.91;;;5.49;100.00
55916;BME280;41826;53.246;-6.670;2023-02-01T02:27:55;102015.66;;;5.55;100.00
55916;BME280;41826;53.246;-6.670;2023-02-01T02:30:44;102015.66;;;5.55;100.00
55916;BME280;41826;53.246;-6.670;2023-02-01T02:38:56;102012.34;;;5.52;100.00
55916;BME280;41826;53.246;-6.670;2023-02-01T02:42:07;102016.34;;;5.59;100.00
55916;BME280;41826;53.246;-6.670;2023-02-01T02:48:25;102013.13;;;5.54;100.00
55916;BME280;41826;53.246;-6.670;2023-02-01T02:53:52;102010.34;;;5.57;100.00
55916;BME280;41826;53.246;-6.670;2023-02-01T02:56:40;102001.53;;;5.59;100.00
55916;BME280;41826;53.246;-6.670;2023-02-01T02:59:26;101999.31;;;5.52;100.00
55916;BME280;41826;53.246;-6.670;2023-02-01T03:02:12;102000.81;;;5.57;100.00
55916;BME280;41826;53.246;-6.670;2023-02-01T03:04:57;101992.81;;;5.60;100.00
55916;BME280;41826;53.246;-6.670;2023-02-01T03:16:28;102000.47;;;5.63;100.00
55916;BME280;41826;53.246;-6.670;2023-02-01T03:19:09;102001.41;;;5.62;100.00
55916;BME280;41826;53.246;-6.670;2023-02-01T03:21:41;101997.09;;;5.61;100.00
55916;BME280;41826;53.246;-6.670;2023-02-01T03:24:25;102012.88;;;5.58;100.00
55916;BME280;41826;53.246;-6.670;2023-02-01T03:27:22;102005.31;;;5.54;100.00
55916;BME280;41826;53.246;-6.670;2023-02-01T03:30:03;102007.34;;;5.64;100.00
55916;BME280;41826;53.246;-6.670;2023-02-01T03:32:32;102013.97;;;5.54;100.00
55916;BME280;41826;53.246;-6.670;2023-02-01T03:35:23;101998.94;;;5.59;100.00
55916;BME280;41826;53.246;-6.670;2023-02-01T03:37:52;102001.53;;;5.59;100.00
55916;BME280;41826;53.246;-6.670;2023-02-01T03:40:19;102003.53;;;5.54;100.00
55916;BME280;41826;53.246;-6.670;2023-02-01T03:42:49;101998.94;;;5.59;100.00
55916;BME280;41826;53.246;-6.670;2023-02-01T03:45:27;102004.91;;;5.61;100.00
55916;BME280;41826;53.246;-6.670;2023-02-01T03:47:57;101992.22;;;5.55;100.00
55916;BME280;41826;53.246;-6.670;2023-02-01T03:50:25;102002.53;;;5.57;100.00
55916;BME280;41826;53.246;-6.670;2023-02-01T03:53:01;101983.63;;;5.53;100.00
55916;BME280;41826;53.246;-6.670;2023-02-01T03:55:29;101974.75;;;5.57;100.00
55916;BME280;41826;53.246;-6.670;2023-02-01T03:58:07;101981.56;;;5.60;100.00
55916;BME280;41826;53.246;-6.670;2023-02-01T04:00:35;101977.78;;;5.65;100.00
55916;BME280;41826;53.246;-6.670;2023-02-01T04:03:02;101974.41;;;5.63;100.00
55916;BME280;41826;53.246;-6.670;2023-02-01T04:05:29;101983.78;;;5.68;100.00
55916;BME280;41826;53.246;-6.670;2023-02-01T04:07:55;101976.84;;;5.67;100.00
55916;BME280;41826;53.246;-6.670;2023-02-01T04:10:21;101969.81;;;5.69;100.00
55916;BME280;41826;53.246;-6.670;2023-02-01T04:12:46;101977.56;;;5.70;100.00
55916;BME280;41826;53.246;-6.670;2023-02-01T04:15:12;101975.84;;;5.69;100.00
55916;BME280;41826;53.246;-6.670;2023-02-01T04:17:37;101977.56;;;5.70;100.00
55916;BME280;41826;53.246;-6.670;2023-02-01T04:20:03;101980.06;;;5.72;100.00
55916;BME280;41826;53.246;-6.670;2023-02-01T04:22:30;101984.38;;;5.73;100.00
55916;BME280;41826;53.246;-6.670;2023-02-01T04:24:55;101970.50;;;5.72;100.00
55916;BME280;41826;53.246;-6.670;2023-02-01T04:27:20;101982.25;;;5.79;100.00
55916;BME280;41826;53.246;-6.670;2023-02-01T04:29:46;101978.75;;;5.80;100.00
55916;BME280;41826;53.246;-6.670;2023-02-01T04:32:11;101971.78;;;5.81;100.00
55916;BME280;41826;53.246;-6.670;2023-02-01T04:34:37;101969.16;;;5.81;100.00
55916;BME280;41826;53.246;-6.670;2023-02-01T04:37:02;101965.72;;;5.80;100.00
55916;BME280;41826;53.246;-6.670;2023-02-01T04:39:28;101969.09;;;5.82;100.00
55916;BME280;41826;53.246;-6.670;2023-02-01T04:41:53;101969.84;;;5.84;100.00
55916;BME280;41826;53.246;-6.670;2023-02-01T04:44:19;101976.81;;;5.84;100.00
55916;BME280;41826;53.246;-6.670;2023-02-01T04:46:45;101982.78;;;5.86;100.00
55916;BME280;41826;53.246;-6.670;2023-02-01T04:49:12;101977.59;;;5.86;100.00
55916;BME280;41826;53.246;-6.670;2023-02-01T04:51:37;101974.31;;;5.82;100.00
55916;BME280;41826;53.246;-6.670;2023-02-01T04:54:03;101981.72;;;5.90;100.00
55916;BME280;41826;53.246;-6.670;2023-02-01T04:56:29;101977.59;;;5.86;100.00
55916;BME280;41826;53.246;-6.670;2023-02-01T04:58:54;101969.00;;;5.84;100.00
55916;BME280;41826;53.246;-6.670;2023-02-01T05:01:21;101968.09;;;5.85;100.00
55916;BME280;41826;53.246;-6.670;2023-02-01T05:03:47;101977.59;;;5.86;100.00
55916;BME280;41826;53.246;-6.670;2023-02-01T05:06:12;101978.41;;;5.86;100.00
55916;BME280;41826;53.246;-6.670;2023-02-01T05:08:37;101968.50;;;5.77;100.00
55916;BME280;41826;53.246;-6.670;2023-02-01T05:11:03;101961.41;;;5.79;100.00
55916;BME280;41826;53.246;-6.670;2023-02-01T05:13:29;101975.16;;;5.83;100.00
55916;BME280;41826;53.246;-6.670;2023-02-01T05:16:12;101978.81;;;5.79;100.00
55916;BME280;41826;53.246;-6.670;2023-02-01T05:18:38;101986.25;;;5.86;100.00
55916;BME280;41826;53.246;-6.670;2023-02-01T05:21:03;101984.75;;;5.82;100.00
55916;BME280;41826;53.246;-6.670;2023-02-01T05:23:29;101988.94;;;5.85;100.00
55916;BME280;41826;53.246;-6.670;2023-02-01T05:25:58;101983.56;;;5.88;100.00
55916;BME280;41826;53.246;-6.670;2023-02-01T05:28:25;101983.63;;;5.86;100.00
55916;BME280;41826;53.246;-6.670;2023-02-01T05:30:50;101980.25;;;5.84;100.00
55916;BME280;41826;53.246;-6.670;2023-02-01T05:33:16;101981.72;;;5.90;100.00
55916;BME280;41826;53.246;-6.670;2023-02-01T05:35:41;101975.44;;;5.94;100.00
55916;BME280;41826;53.246;-6.670;2023-02-01T05:38:06;101981.47;;;5.95;100.00
55916;BME280;41826;53.246;-6.670;2023-02-01T05:40:32;101967.53;;;5.96;100.00
55916;BME280;41826;53.246;-6.670;2023-02-01T05:42:57;101979.47;;;6.00;100.00
55916;BME280;41826;53.246;-6.670;2023-02-01T05:45:23;101984.38;;;6.06;100.00
55916;BME280;41826;53.246;-6.670;2023-02-01T05:47:48;101977.63;;;6.02;100.00
55916;BME280;41826;53.246;-6.670;2023-02-01T05:50:13;101976.72;;;6.03;100.00
55916;BME280;41826;53.246;-6.670;2023-02-01T05:52:39;101985.28;;;6.05;100.00
55916;BME280;41826;53.246;-6.670;2023-02-01T05:55:04;101974.72;;;6.08;100.00
55916;BME280;41826;53.246;-6.670;2023-02-01T05:57:30;101987.81;;;6.06;100.00
55916;BME280;41826;53.246;-6.670;2023-02-01T05:59:56;101985.28;;;6.05;100.00
55916;BME280;41826;53.246;-6.670;2023-02-01T06:02:21;101978.91;;;6.11;100.00
55916;BME280;41826;53.246;-6.670;2023-02-01T06:04:49;101977.81;;;6.15;100.00
55916;BME280;41826;53.246;-6.670;2023-02-01T06:07:15;101985.56;;;6.16;100.00
55916;BME280;41826;53.246;-6.670;2023-02-01T06:09:40;101983.03;;;6.15;100.00
55916;BME280;41826;53.246;-6.670;2023-02-01T06:12:06;101983.84;;;6.15;100.00
55916;BME280;41826;53.246;-6.670;2023-02-01T06:14:31;101988.94;;;6.18;100.00
55916;BME280;41826;53.246;-6.670;2023-02-01T06:16:56;101991.28;;;6.23;100.00
55916;BME280;41826;53.246;-6.670;2023-02-01T06:19:22;101987.94;;;6.21;100.00
55916;BME280;41826;53.246;-6.670;2023-02-01T06:21:48;101985.97;;;6.24;100.00
55916;BME280;41826;53.246;-6.670;2023-02-01T06:24:14;101982.72;;;6.21;100.00
55916;BME280;41826;53.246;-6.670;2023-02-01T06:26:39;101988.50;;;6.26;100.00
55916;BME280;41826;53.246;-6.670;2023-02-01T06:29:11;101986.09;;;6.23;100.00
55916;BME280;41826;53.246;-6.670;2023-02-01T06:31:37;101986.56;;;6.29;100.00
55916;BME280;41826;53.246;-6.670;2023-02-01T06:34:03;101987.09;;;6.20;100.00
55916;BME280;41826;53.246;-6.670;2023-02-01T06:36:28;101986.09;;;6.23;100.00
55916;BME280;41826;53.246;-6.670;2023-02-01T06:38:53;101988.75;;;6.21;100.00
55916;BME280;41826;53.246;-6.670;2023-02-01T06:41:22;101983.13;;;6.29;100.00
55916;BME280;41826;53.246;-6.670;2023-02-01T06:43:47;101981.53;;;6.26;100.00
55916;BME280;41826;53.246;-6.670;2023-02-01T06:46:13;101981.53;;;6.26;100.00
55916;BME280;41826;53.246;-6.670;2023-02-01T06:48:38;101984.91;;;6.28;100.00
55916;BME280;41826;53.246;-6.670;2023-02-01T06:51:05;101980.53;;;6.29;100.00
55916;BME280;41826;53.246;-6.670;2023-02-01T06:53:30;101970.25;;;6.26;100.00
55916;BME280;41826;53.246;-6.670;2023-02-01T06:56:01;101981.34;;;6.29;100.00
55916;BME280;41826;53.246;-6.670;2023-02-01T06:58:31;101977.06;;;6.28;100.00
55916;BME280;41826;53.246;-6.670;2023-02-01T07:00:57;101976.38;;;6.25;100.00
55916;BME280;41826;53.246;-6.670;2023-02-01T07:03:22;101979.59;;;6.30;100.00
55916;BME280;41826;53.246;-6.670;2023-02-01T07:05:48;101979.69;;;6.28;100.00
55916;BME280;41826;53.246;-6.670;2023-02-01T07:08:13;101984.72;;;6.32;100.00
55916;BME280;41826;53.246;-6.670;2023-02-01T07:10:39;101988.16;;;6.32;100.00
55916;BME280;41826;53.246;-6.670;2023-02-01T07:13:04;101987.25;;;6.33;100.00
55916;BME280;41826;53.246;-6.670;2023-02-01T07:15:29;101992.47;;;6.33;100.00
55916;BME280;41826;53.246;-6.670;2023-02-01T07:17:55;101990.00;;;6.30;100.00
55916;BME280;41826;53.246;-6.670;2023-02-01T07:20:21;101997.75;;;6.32;100.00
55916;BME280;41826;53.246;-6.670;2023-02-01T07:22:46;101997.84;;;6.30;100.00
55916;BME280;41826;53.246;-6.670;2023-02-01T07:25:12;101996.75;;;6.34;100.00
55916;BME280;41826;53.246;-6.670;2023-02-01T07:27:37;101997.69;;;6.33;100.00
55916;BME280;41826;53.246;-6.670;2023-02-01T07:30:04;101997.69;;;6.33;100.00
55916;BME280;41826;53.246;-6.670;2023-02-01T07:32:30;101999.53;;;6.31;100.00
55916;BME280;41826;53.246;-6.670;2023-02-01T07:34:56;102002.03;;;6.33;100.00
55916;BME280;41826;53.246;-6.670;2023-02-01T07:37:22;102003.63;;;6.35;100.00
55916;BME280;41826;53.246;-6.670;2023-02-01T07:39:49;102006.25;;;6.35;100.00
55916;BME280;41826;53.246;-6.670;2023-02-01T07:42:14;101996.41;;;6.40;100.00
55916;BME280;41826;53.246;-6.670;2023-02-01T07:44:40;102005.94;;;6.41;100.00
55916;BME280;41826;53.246;-6.670;2023-02-01T07:47:05;101998.00;;;6.43;100.00
55916;BME280;41826;53.246;-6.670;2023-02-01T07:49:31;102008.13;;;6.49;100.00
55916;BME280;41826;53.246;-6.670;2023-02-01T07:51:56;101992.66;;;6.46;100.00
55916;BME280;41826;53.246;-6.670;2023-02-01T07:54:21;102006.34;;;6.49;100.00
55916;BME280;41826;53.246;-6.670;2023-02-01T07:56:47;102007.09;;;6.51;100.00
55916;BME280;41826;53.246;-6.670;2023-02-01T07:59:12;101998.50;;;6.49;100.00
55916;BME280;41826;53.246;-6.670;2023-02-01T08:01:38;101994.66;;;6.57;100.00
55916;BME280;41826;53.246;-6.670;2023-02-01T08:04:03;102004.31;;;6.55;100.00
55916;BME280;41826;53.246;-6.670;2023-02-01T08:06:31;101996.56;;;6.53;100.00
55916;BME280;41826;53.246;-6.670;2023-02-01T08:08:57;101992.03;;;6.57;100.00
55916;BME280;41826;53.246;-6.670;2023-02-01T08:11:24;101998.09;;;6.57;100.00
55916;BME280;41826;53.246;-6.670;2023-02-01T08:13:50;101998.75;;;6.61;100.00
55916;BME280;41826;53.246;-6.670;2023-02-01T08:16:17;102003.81;;;6.64;100.00
55916;BME280;41826;53.246;-6.670;2023-02-01T08:18:42;102003.06;;;6.62;100.00
55916;BME280;41826;53.246;-6.670;2023-02-01T08:21:11;101999.69;;;6.60;100.00
55916;BME280;41826;53.246;-6.670;2023-02-01T08:23:37;102007.16;;;6.66;100.00
55916;BME280;41826;53.246;-6.670;2023-02-01T08:28:38;102011.66;;;6.64;100.00
55916;BME280;41826;53.246;-6.670;2023-02-01T08:31:10;102017.53;;;6.67;100.00
55916;BME280;41826;53.246;-6.670;2023-02-01T08:33:36;102024.59;;;6.65;100.00
55916;BME280;41826;53.246;-6.670;2023-02-01T08:36:04;102023.50;;;6.69;100.00
55916;BME280;41826;53.246;-6.670;2023-02-01T08:38:30;102025.16;;;6.70;100.00
55916;BME280;41826;53.246;-6.670;2023-02-01T08:40:55;102022.31;;;6.75;100.00
55916;BME280;41826;53.246;-6.670;2023-02-01T08:43:21;102026.78;;;6.73;100.00
55916;BME280;41826;53.246;-6.670;2023-02-01T08:45:46;102027.97;;;6.67;100.00
55916;BME280;41826;53.246;-6.670;2023-02-01T08:48:12;102034.44;;;6.76;100.00
55916;BME280;41826;53.246;-6.670;2023-02-01T08:50:37;102036.31;;;6.74;100.00
55916;BME280;41826;53.246;-6.670;2023-02-01T08:53:02;102031.66;;;6.79;100.00
55916;BME280;41826;53.246;-6.670;2023-02-01T08:55:28;102042.19;;;6.78;100.00
55916;BME280;41826;53.246;-6.670;2023-02-01T08:57:53;102043.13;;;6.77;100.00
55916;BME280;41826;53.246;-6.670;2023-02-01T09:00:19;102043.13;;;6.77;100.00
55916;BME280;41826;53.246;-6.670;2023-02-01T09:02:45;102049.56;;;6.85;100.00
55916;BME280;41826;53.246;-6.670;2023-02-01T09:05:10;102056.41;;;6.88;100.00
55916;BME280;41826;53.246;-6.670;2023-02-01T09:07:37;102054.63;;;6.88;100.00
55916;BME280;41826;53.246;-6.670;2023-02-01T09:10:03;102052.19;;;6.85;100.00
55916;BME280;41826;53.246;-6.670;2023-02-01T09:12:30;102053.78;;;6.88;100.00
55916;BME280;41826;53.246;-6.670;2023-02-01T09:14:56;102051.00;;;6.91;100.00
55916;BME280;41826;53.246;-6.670;2023-02-01T09:17:24;102060.72;;;6.89;100.00
55916;BME280;41826;53.246;-6.670;2023-02-01T09:19:50;102066.50;;;6.94;100.00
55916;BME280;41826;53.246;-6.670;2023-02-01T09:22:15;102068.25;;;6.93;100.00
55916;BME280;41826;53.246;-6.670;2023-02-01T09:24:41;102076.59;;;7.00;100.00
55916;BME280;41826;53.246;-6.670;2023-02-01T09:27:06;102074.06;;;6.99;100.00
55916;BME280;41826;53.246;-6.670;2023-02-01T09:29:32;102073.91;;;7.02;100.00
55916;BME280;41826;53.246;-6.670;2023-02-01T09:31:57;102073.91;;;7.02;100.00
55916;BME280;41826;53.246;-6.670;2023-02-01T09:34:23;102065.78;;;7.06;100.00
55916;BME280;41826;53.246;-6.670;2023-02-01T09:36:48;102075.22;;;7.09;100.00
55916;BME280;41826;53.246;-6.670;2023-02-01T09:39:13;102070.00;;;7.09;100.00
55916;BME280;41826;53.246;-6.670;2023-02-01T09:47:19;102071.19;;;7.19;100.00
55916;BME280;41826;53.246;-6.670;2023-02-01T09:50:05;102065.34;;;7.30;100.00
55916;BME280;41826;53.246;-6.670;2023-02-01T09:52:44;102063.75;;;7.27;100.00
55916;BME280;41826;53.246;-6.670;2023-02-01T09:55:16;102072.34;;;7.29;100.00
55916;BME280;41826;53.246;-6.670;2023-02-01T09:58:07;102063.75;;;7.27;100.00
55916;BME280;41826;53.246;-6.670;2023-02-01T10:00:38;102079.91;;;7.34;100.00
55916;BME280;41826;53.246;-6.670;2023-02-01T10:03:05;102075.69;;;7.31;100.00
55916;BME280;41826;53.246;-6.670;2023-02-01T10:14:13;102086.63;;;7.38;100.00
55916;BME280;41826;53.246;-6.670;2023-02-01T10:22:46;102080.03;;;7.47;100.00
55916;BME280;41826;53.246;-6.670;2023-02-01T10:25:20;102093.66;;;7.52;100.00
55916;BME280;41826;53.246;-6.670;2023-02-01T10:27:46;102088.53;;;7.50;100.00
55916;BME280;41826;53.246;-6.670;2023-02-01T10:30:18;102079.56;;;7.54;100.00
55916;BME280;41826;53.246;-6.670;2023-02-01T10:32:44;102088.28;;;7.55;100.00
55916;BME280;41826;53.246;-6.670;2023-02-01T10:35:16;102088.28;;;7.69;100.00
55916;BME280;41826;53.246;-6.670;2023-02-01T10:37:42;102088.13;;;7.72;100.00
55916;BME280;41826;53.246;-6.670;2023-02-01T10:40:21;102097.28;;;7.79;100.00
55916;BME280;41826;53.246;-6.670;2023-02-01T10:42:53;102095.78;;;7.75;100.00
55916;BME280;41826;53.246;-6.670;2023-02-01T10:45:21;102110.53;;;7.76;100.00
55916;BME280;41826;53.246;-6.670;2023-02-01T10:47:51;102098.25;;;7.93;100.00
55916;BME280;41826;53.246;-6.670;2023-02-01T10:50:57;102111.47;;;7.90;100.00
55916;BME280;41826;53.246;-6.670;2023-02-01T10:53:47;102108.72;;;7.93;100.00
55916;BME280;41826;53.246;-6.670;2023-02-01T10:56:25;102115.34;;;7.98;100.00
55916;BME280;41826;53.246;-6.670;2023-02-01T10:58:51;102127.00;;;7.93;100.00
55916;BME280;41826;53.246;-6.670;2023-02-01T11:01:31;102117.28;;;7.95;100.00
55916;BME280;41826;53.246;-6.670;2023-02-01T11:04:00;102132.63;;;8.01;100.00
55916;BME280;41826;53.246;-6.670;2023-02-01T11:06:30;102117.38;;;7.93;100.00
55916;BME280;41826;53.246;-6.670;2023-02-01T11:08:58;102118.41;;;8.05;100.00
55916;BME280;41826;53.246;-6.670;2023-02-01T11:11:25;102125.34;;;8.06;100.00
55916;BME280;41826;53.246;-6.670;2023-02-01T11:13:59;102109.19;;;8.14;100.00
55916;BME280;41826;53.246;-6.670;2023-02-01T11:16:34;102119.94;;;8.23;100.00
55916;BME280;41826;53.246;-6.670;2023-02-01T11:19:00;102123.38;;;8.24;100.00
55916;BME280;41826;53.246;-6.670;2023-02-01T11:21:26;102107.41;;;8.29;100.00
55916;BME280;41826;53.246;-6.670;2023-02-01T11:23:52;102089.47;;;8.37;100.00
55916;BME280;41826;53.246;-6.670;2023-02-01T11:26:23;102112.00;;;8.39;100.00
55916;BME280;41826;53.246;-6.670;2023-02-01T11:29:10;102099.97;;;8.51;100.00
55916;BME280;41826;53.246;-6.670;2023-02-01T11:31:36;102101.63;;;8.52;100.00
55916;BME280;41826;53.246;-6.670;2023-02-01T11:34:13;102105.81;;;8.55;100.00
55916;BME280;41826;53.246;-6.670;2023-02-01T11:36:40;102111.91;;;8.55;100.00
55916;BME280;41826;53.246;-6.670;2023-02-01T11:39:18;102119.09;;;8.66;100.00
55916;BME280;41826;53.246;-6.670;2023-02-01T11:41:55;102107.41;;;8.72;100.00
55916;BME280;41826;53.246;-6.670;2023-02-01T11:46:55;102114.09;;;8.76;100.00
55916;BME280;41826;53.246;-6.670;2023-02-01T11:49:25;102105.53;;;8.74;100.00
55916;BME280;41826;53.246;-6.670;2023-02-01T11:52:17;102107.75;;;8.80;100.00
55916;BME280;41826;53.246;-6.670;2023-02-01T11:54:48;102111.00;;;8.83;100.00
55916;BME280;41826;53.246;-6.670;2023-02-01T11:57:42;102119.41;;;8.88;100.00
55916;BME280;41826;53.246;-6.670;2023-02-01T12:06:08;102113.59;;;8.98;100.00
55916;BME280;41826;53.246;-6.670;2023-02-01T12:14:19;102105.25;;;9.05;100.00
55916;BME280;41826;53.246;-6.670;2023-02-01T12:22:33;102090.84;;;9.25;100.00
55916;BME280;41826;53.246;-6.670;2023-02-01T12:25:27;102087.69;;;9.20;100.00
55916;BME280;41826;53.246;-6.670;2023-02-01T12:41:56;102077.81;;;9.51;100.00
55916;BME280;41826;53.246;-6.670;2023-02-01T12:47:29;102070.03;;;9.49;100.00
55916;BME280;41826;53.246;-6.670;2023-02-01T12:53:23;102074.78;;;9.57;100.00
55916;BME280;41826;53.246;-6.670;2023-02-01T12:55:53;102063.44;;;9.57;100.00
55916;BME280;41826;53.246;-6.670;2023-02-01T12:58:50;102072.03;;;9.59;100.00
55916;BME280;41826;53.246;-6.670;2023-02-01T13:01:39;102068.81;;;9.68;100.00
55916;BME280;41826;53.246;-6.670;2023-02-01T13:09:18;102062.53;;;9.70;100.00
55916;BME280;41826;53.246;-6.670;2023-02-01T13:11:46;102063.66;;;9.66;100.00
55916;BME280;41826;53.246;-6.670;2023-02-01T13:16:47;102065.88;;;9.85;100.00
55916;BME280;41826;53.246;-6.670;2023-02-01T13:19:45;102057.38;;;9.82;100.00
55916;BME280;41826;53.246;-6.670;2023-02-01T13:22:28;102066.72;;;9.73;100.00
55916;BME280;41826;53.246;-6.670;2023-02-01T13:27:26;102081.63;;;9.85;100.00
55916;BME280;41826;53.246;-6.670;2023-02-01T13:29:57;102079.72;;;9.87;100.00
55916;BME280;41826;53.246;-6.670;2023-02-01T13:35:46;102074.81;;;9.83;100.00
55916;BME280;41826;53.246;-6.670;2023-02-01T13:43:44;102071.66;;;10.03;100.00
55916;BME280;41826;53.246;-6.670;2023-02-01T13:46:13;102069.13;;;10.02;100.00
55916;BME280;41826;53.246;-6.670;2023-02-01T13:48:49;102066.06;;;9.95;100.00
55916;BME280;41826;53.246;-6.670;2023-02-01T13:51:44;102061.78;;;10.07;100.00
55916;BME280;41826;53.246;-6.670;2023-02-01T13:54:33;102060.50;;;10.12;100.00
55916;BME280;41826;53.246;-6.670;2023-02-01T13:57:00;102067.00;;;10.19;100.00
55916;BME280;41826;53.246;-6.670;2023-02-01T14:05:07;102061.56;;;10.10;100.00
55916;BME280;41826;53.246;-6.670;2023-02-01T14:07:33;102052.00;;;10.09;100.00
55916;BME280;41826;53.246;-6.670;2023-02-01T14:13:04;102056.81;;;10.15;100.00
55916;BME280;41826;53.246;-6.670;2023-02-01T14:15:30;102066.25;;;10.17;100.00
55916;BME280;41826;53.246;-6.670;2023-02-01T14:17:55;102075.38;;;10.25;100.00
55916;BME280;41826;53.246;-6.670;2023-02-01T14:20:43;102073.00;;;10.22;100.00
55916;BME280;41826;53.246;-6.670;2023-02-01T14:23:14;102073.44;;;10.28;100.00
55916;BME280;41826;53.246;-6.670;2023-02-01T14:25:40;102075.19;;;10.28;100.00
55916;BME280;41826;53.246;-6.670;2023-02-01T14:28:26;102065.94;;;10.22;100.00
55916;BME280;41826;53.246;-6.670;2023-02-01T14:30:54;102055.25;;;9.99;100.00
55916;BME280;41826;53.246;-6.670;2023-02-01T14:33:23;102055.06;;;10.15;100.00
55916;BME280;41826;53.246;-6.670;2023-02-01T14:36:07;102041.28;;;10.12;100.00
55916;BME280;41826;53.246;-6.670;2023-02-01T14:38:36;102041.94;;;10.15;100.00
55916;BME280;41826;53.246;-6.670;2023-02-01T14:41:33;102034.28;;;9.99;100.00
55916;BME280;41826;53.246;-6.670;2023-02-01T14:49:31;102040.75;;;10.19;100.00
55916;BME280;41826;53.246;-6.670;2023-02-01T14:51:57;102040.97;;;10.16;100.00
55916;BME280;41826;53.246;-6.670;2023-02-01T14:54:23;102052.09;;;10.20;100.00